Noemi — V7HY6 — position and weather

sailwx.info

Track history (hours):
 
Tides and Currents Weather Stations Pressure Air Temp Water Temp Dewpoint Dewpoint Depression Visibility Wind Speed Wind Dir Waves Ship Positions

Noemi

Last reported at 2018-Feb-17 08:50 UTC. Time now 2018-Feb-24 20:14 UTC.
Position N 14°43' E 060°37'.

Length 229 m; draft 8 m.

Type: Tanker. MMSI: 538002335.

Date/timePositionNaut miles runAvg speedWind from/ knotsBaromVisibWave heightAir tempDewpointWater temp
2018-Feb-17 08:50N 14°43' E 060°37'  
2018-Feb-08 01:30N 31°50' E 031°43'5 9.6
2018-Feb-08 01:00N 31°52' E 031°38'610.0
2018-Feb-08 00:25N 31°55' E 031°32'4 9.8
2018-Feb-08 00:00N 31°56' E 031°28'510.2
2018-Feb-07 23:28N 31°59' E 031°22'510.1
2018-Feb-07 22:57N 32°01' E 031°16'510.2
2018-Feb-07 22:30N 32°03' E 031°11'510.3
2018-Feb-07 22:00N 32°05' E 031°06'510.4
2018-Feb-07 21:30N 32°07' E 031°00'  
Track history (hours):
 
Tides and Currents Weather Stations Pressure Air Temp Water Temp Dewpoint Dewpoint Depression Visibility Wind Speed Wind Dir Waves Ship Positions

Noemi

Last reported at 2018-Feb-17 08:50 UTC. Time now 2018-Feb-24 20:14 UTC.
Position N 14°43' E 060°37'.

Length 229 m; draft 8 m.

Type: Tanker. MMSI: 538002335.

Date/timePositionNaut miles runAvg speedWind from/ knotsBaromVisibWave heightAir tempDewpointWater temp
2018-Feb-17 08:50N 14°43' E 060°37'  
2018-Feb-08 01:30N 31°50' E 031°43'5 9.6
2018-Feb-08 01:00N 31°52' E 031°38'610.0
2018-Feb-08 00:25N 31°55' E 031°32'4 9.8
2018-Feb-08 00:00N 31°56' E 031°28'510.2
2018-Feb-07 23:28N 31°59' E 031°22'510.1
2018-Feb-07 22:57N 32°01' E 031°16'510.2
2018-Feb-07 22:30N 32°03' E 031°11'510.3
2018-Feb-07 22:00N 32°05' E 031°06'510.4
2018-Feb-07 21:30N 32°07' E 031°00'  

Dump ship's entire track history